Time;durP1;ratioP1;P1;durP2;ratioP2;P2;SDS_P1;SDS_P2;PMS_P1;PMS_P2;Temp;Humidity;BMP_temperature;BMP_pressure;BME280_temperature;BME280_humidity;BME280_pressure;Samples;Min_cycle;Max_cycle;Signal;HPM_P1;HPM_P2
2020/12/05 00:01:22;;;;;;;2.53;1.23;;;3.00;99.90;;;;;;5007724;28;20030;-67
2020/12/05 00:03:48;;;;;;;3.80;1.55;;;3.00;99.90;;;;;;5008963;28;20125;-67
2020/12/05 00:06:20;;;;;;;6.93;2.00;;;3.00;99.90;;;;;;5008513;28;20120;-66
2020/12/05 00:08:46;;;;;;;8.88;1.65;;;3.00;99.90;;;;;;5008821;28;20331;-67
2020/12/05 00:11:12;;;;;;;9.55;2.53;;;3.00;99.90;;;;;;5008670;28;20096;-67
2020/12/05 00:13:37;;;;;;;3.13;1.30;;;3.00;99.90;;;;;;5027834;28;20486;-67
2020/12/05 00:16:03;;;;;;;5.93;1.55;;;3.10;99.90;;;;;;5008832;28;20034;-67
2020/12/05 00:18:28;;;;;;;5.82;1.85;;;3.00;99.90;;;;;;5032465;28;20398;-67
2020/12/05 00:20:54;;;;;;;11.80;1.55;;;3.00;99.90;;;;;;5033972;28;20088;-67
2020/12/05 00:23:19;;;;;;;5.60;1.75;;;2.90;99.90;;;;;;5010146;28;20046;-67
2020/12/05 00:25:45;;;;;;;4.07;1.70;;;2.90;99.90;;;;;;5031296;28;20065;-67
2020/12/05 00:28:11;;;;;;;6.18;1.77;;;2.90;99.90;;;;;;5008430;28;20041;-67
2020/12/05 00:30:36;;;;;;;6.25;2.60;;;2.90;99.90;;;;;;5008176;28;20033;-67
2020/12/05 00:33:03;;;;;;;4.10;1.52;;;2.90;99.90;;;;;;5008222;28;20042;-67
2020/12/05 00:35:29;;;;;;;5.07;1.55;;;2.90;99.90;;;;;;5008084;28;20392;-67
2020/12/05 00:37:57;;;;;;;2.95;1.27;;;2.90;99.90;;;;;;5008229;28;20509;-67
2020/12/05 00:40:23;;;;;;;3.33;1.50;;;2.90;99.90;;;;;;5008568;28;20042;-67
2020/12/05 00:42:49;;;;;;;9.30;1.70;;;2.90;99.90;;;;;;5008164;28;20387;-67
2020/12/05 00:45:15;;;;;;;4.82;1.45;;;2.90;99.90;;;;;;5008088;28;20038;-66
2020/12/05 00:47:41;;;;;;;2.20;1.20;;;2.90;99.90;;;;;;5007299;28;20034;-67
2020/12/05 00:50:07;;;;;;;4.43;1.30;;;2.90;99.90;;;;;;5007971;28;20037;-67
2020/12/05 00:52:32;;;;;;;7.55;1.55;;;2.90;99.90;;;;;;5007573;28;20030;-67
2020/12/05 00:54:58;;;;;;;6.45;1.48;;;2.90;99.90;;;;;;5031112;28;20042;-67
2020/12/05 00:57:23;;;;;;;4.60;1.80;;;2.90;99.90;;;;;;5006698;28;20522;-66
2020/12/05 00:59:49;;;;;;;3.17;1.20;;;2.90;99.90;;;;;;5007627;28;20225;-67
2020/12/05 01:02:15;;;;;;;3.65;1.23;;;2.90;99.90;;;;;;5007856;28;20049;-67
2020/12/05 01:04:40;;;;;;;5.20;1.58;;;2.80;99.90;;;;;;5006431;28;20558;-67
2020/12/05 01:07:06;;;;;;;5.93;2.00;;;2.80;99.90;;;;;;5008219;28;20206;-67
2020/12/05 01:09:32;;;;;;;8.93;1.40;;;2.80;99.90;;;;;;5008042;28;20034;-67
2020/12/05 01:11:57;;;;;;;5.88;1.90;;;2.80;99.90;;;;;;5007903;28;20041;-67
2020/12/05 01:14:23;;;;;;;7.25;2.20;;;2.80;99.90;;;;;;5035341;28;20108;-67
2020/12/05 01:16:49;;;;;;;5.75;1.85;;;2.80;99.90;;;;;;5011572;28;20045;-67
2020/12/05 01:19:14;;;;;;;4.03;1.35;;;2.80;99.90;;;;;;5011811;28;20038;-67
2020/12/05 01:21:43;;;;;;;4.00;1.60;;;2.80;99.90;;;;;;5011747;28;20026;-68
2020/12/05 01:24:09;;;;;;;6.10;1.60;;;2.70;99.90;;;;;;5012168;28;20033;-67
2020/12/05 01:26:34;;;;;;;3.47;1.85;;;2.70;99.90;;;;;;5011522;28;20052;-67
2020/12/05 01:29:00;;;;;;;3.53;1.05;;;2.70;99.90;;;;;;5011612;28;20108;-67
2020/12/05 01:31:25;;;;;;;5.15;2.00;;;2.80;99.90;;;;;;5010475;28;20049;-67
2020/12/05 01:33:51;;;;;;;7.10;1.63;;;2.70;99.90;;;;;;5011649;28;20492;-67
2020/12/05 01:36:16;;;;;;;8.43;1.50;;;2.70;99.90;;;;;;5035105;28;20042;-67
2020/12/05 01:38:42;;;;;;;3.78;1.55;;;2.70;99.90;;;;;;5013607;28;20030;-67
2020/12/05 01:41:08;;;;;;;5.90;1.55;;;2.70;99.90;;;;;;5016385;28;20033;-67
2020/12/05 01:43:33;;;;;;;2.80;1.52;;;2.70;99.90;;;;;;5015884;28;20025;-68
2020/12/05 01:46:02;;;;;;;4.55;1.73;;;2.70;99.90;;;;;;5011837;28;20075;-67
2020/12/05 01:48:27;;;;;;;4.00;1.80;;;2.70;99.90;;;;;;5011127;28;20490;-67
2020/12/05 01:50:54;;;;;;;5.15;1.88;;;2.60;99.90;;;;;;5011171;28;20030;-67
2020/12/05 01:53:20;;;;;;;4.82;1.75;;;2.60;99.90;;;;;;5034624;28;20034;-67
2020/12/05 01:55:50;;;;;;;6.95;1.98;;;2.60;99.90;;;;;;5009631;28;20037;-67
2020/12/05 01:58:16;;;;;;;3.97;1.67;;;2.60;99.90;;;;;;5009698;28;20414;-67
2020/12/05 02:00:43;;;;;;;4.07;1.95;;;2.60;99.90;;;;;;5011469;28;20053;-67
2020/12/05 02:03:09;;;;;;;5.22;2.10;;;2.70;99.90;;;;;;5011027;28;20038;-67
2020/12/05 02:06:00;;;;;;;4.30;1.55;;;2.60;99.90;;;;;;5011131;28;20521;-67
2020/12/05 02:08:48;;;;;;;3.65;1.55;;;2.60;99.90;;;;;;5010404;28;20034;-67
2020/12/05 02:11:19;;;;;;;5.45;2.28;;;2.50;99.90;;;;;;5008548;28;20049;-67
2020/12/05 02:13:48;;;;;;;7.55;1.73;;;2.50;99.90;;;;;;5009810;28;20042;-67
2020/12/05 02:16:15;;;;;;;3.60;1.92;;;2.50;99.90;;;;;;5010584;28;20033;-67
2020/12/05 02:18:45;;;;;;;7.45;1.55;;;2.50;99.90;;;;;;5010535;28;20026;-66
2020/12/05 02:21:12;;;;;;;5.60;1.90;;;2.50;99.90;;;;;;5010734;28;20030;-67
2020/12/05 02:23:38;;;;;;;3.85;2.40;;;2.50;99.90;;;;;;5010285;28;20054;-67
2020/12/05 02:26:06;;;;;;;5.55;1.98;;;2.50;99.90;;;;;;5009482;28;20034;-66
2020/12/05 02:28:33;;;;;;;5.57;1.88;;;2.50;99.90;;;;;;5005367;28;20026;-67
2020/12/05 02:30:59;;;;;;;4.55;1.55;;;2.50;99.90;;;;;;5010708;28;20068;-67
2020/12/05 02:33:24;;;;;;;4.55;2.00;;;2.40;99.90;;;;;;5010309;28;20281;-67
2020/12/05 02:35:50;;;;;;;4.95;1.92;;;2.40;99.90;;;;;;5009329;28;20041;-67
2020/12/05 02:38:43;;;;;;;6.63;2.70;;;2.40;99.90;;;;;;5033318;28;20085;-67
2020/12/05 02:41:09;;;;;;;3.40;1.52;;;2.40;99.90;;;;;;5007840;28;20030;-73
2020/12/05 02:43:35;;;;;;;5.25;2.10;;;2.30;99.90;;;;;;5033555;28;20034;-67
2020/12/05 02:46:01;;;;;;;5.35;1.90;;;2.30;99.90;;;;;;5009234;28;20087;-67
2020/12/05 02:48:27;;;;;;;4.22;2.53;;;2.30;99.90;;;;;;5009804;28;20041;-67
2020/12/05 02:50:52;;;;;;;5.20;1.98;;;2.30;99.90;;;;;;5010554;28;20254;-66
2020/12/05 02:53:18;;;;;;;6.32;2.10;;;2.40;99.90;;;;;;5008663;28;20058;-69
2020/12/05 02:55:44;;;;;;;7.20;2.05;;;2.40;99.90;;;;;;5011585;28;20034;-67
2020/12/05 02:58:09;;;;;;;4.90;2.15;;;2.30;99.90;;;;;;5015738;28;20465;-67
2020/12/05 03:00:35;;;;;;;3.97;1.55;;;2.30;99.90;;;;;;5014768;28;20033;-68
2020/12/05 03:03:02;;;;;;;7.40;1.98;;;2.30;99.90;;;;;;5012837;28;20040;-67
2020/12/05 03:05:28;;;;;;;3.88;2.40;;;2.30;99.90;;;;;;5005969;28;20041;-66
2020/12/05 03:07:53;;;;;;;6.35;2.00;;;2.40;99.90;;;;;;5009765;28;20307;-67
2020/12/05 03:10:19;;;;;;;5.13;1.42;;;2.40;99.90;;;;;;5009791;28;20125;-67
2020/12/05 03:12:44;;;;;;;3.60;1.30;;;2.40;99.90;;;;;;5009991;28;20026;-67
2020/12/05 03:15:10;;;;;;;6.68;1.77;;;2.50;99.90;;;;;;5009909;28;20406;-67
2020/12/05 03:17:36;;;;;;;2.97;1.40;;;2.50;99.90;;;;;;5007698;28;20056;-67
2020/12/05 03:20:02;;;;;;;3.95;1.70;;;2.50;99.90;;;;;;5009648;28;20073;-67
2020/12/05 03:22:28;;;;;;;4.70;1.73;;;2.40;99.90;;;;;;5009457;28;20083;-66
2020/12/05 03:24:54;;;;;;;4.30;1.20;;;2.40;99.90;;;;;;5009607;28;20060;-67
2020/12/05 03:27:20;;;;;;;2.83;1.10;;;2.40;99.90;;;;;;5009404;28;21034;-67
2020/12/05 03:29:45;;;;;;;3.72;1.63;;;2.30;99.90;;;;;;5009856;28;20042;-67
2020/12/05 03:34:36;;;;;;;5.18;1.45;;;2.20;99.90;;;;;;5008713;28;20033;-66
2020/12/05 03:37:02;;;;;;;6.53;1.67;;;2.20;99.90;;;;;;5009118;28;20038;-67
2020/12/05 03:39:27;;;;;;;3.53;1.65;;;2.20;99.90;;;;;;5009220;28;20058;-67
2020/12/05 03:41:53;;;;;;;4.22;1.73;;;2.10;99.90;;;;;;5032518;28;20482;-67
2020/12/05 03:44:19;;;;;;;5.50;1.77;;;2.00;99.90;;;;;;5009399;28;20050;-67
2020/12/05 03:46:44;;;;;;;5.32;2.10;;;2.00;99.90;;;;;;5009173;28;20253;-67
2020/12/05 03:49:10;;;;;;;4.60;2.13;;;2.00;99.90;;;;;;5007616;28;20517;-67
2020/12/05 03:51:36;;;;;;;4.32;1.35;;;2.00;99.90;;;;;;5007754;28;20449;-66
2020/12/05 03:54:01;;;;;;;8.13;2.40;;;1.90;99.90;;;;;;5032464;28;20062;-68
2020/12/05 03:56:27;;;;;;;9.80;2.13;;;1.90;99.90;;;;;;5008583;28;20049;-67
2020/12/05 03:58:54;;;;;;;5.82;1.98;;;1.90;99.90;;;;;;5009110;28;20096;-67
2020/12/05 04:01:19;;;;;;;4.40;1.88;;;1.90;99.90;;;;;;5009341;28;20452;-68
2020/12/05 04:03:45;;;;;;;4.95;1.83;;;1.90;99.90;;;;;;5031989;28;20061;-67
2020/12/05 04:06:12;;;;;;;5.82;2.03;;;1.90;99.90;;;;;;5009213;28;20100;-67
2020/12/05 04:08:39;;;;;;;6.20;1.80;;;1.90;99.90;;;;;;5031722;28;20029;-67
2020/12/05 04:11:06;;;;;;;3.03;1.40;;;1.90;99.90;;;;;;5011766;28;20415;-67
2020/12/05 04:13:31;;;;;;;4.60;1.55;;;1.90;99.90;;;;;;5032180;28;20038;-67
2020/12/05 04:15:57;;;;;;;6.10;2.10;;;1.90;99.90;;;;;;5012105;28;20081;-67
2020/12/05 04:18:22;;;;;;;3.22;1.98;;;1.90;99.90;;;;;;5007426;28;20041;-67
2020/12/05 04:20:48;;;;;;;3.20;1.30;;;1.90;99.90;;;;;;5034478;28;20332;-67
2020/12/05 04:23:14;;;;;;;2.97;1.48;;;1.80;99.90;;;;;;5032095;28;20087;-67
2020/12/05 04:25:40;;;;;;;5.45;1.58;;;1.80;99.90;;;;;;5006892;28;20034;-67
2020/12/05 04:28:05;;;;;;;6.88;1.88;;;1.80;99.90;;;;;;5008624;28;20558;-67
2020/12/05 04:30:31;;;;;;;6.70;2.22;;;1.80;99.90;;;;;;5006948;28;20045;-68
2020/12/05 04:32:56;;;;;;;3.53;1.30;;;1.80;99.90;;;;;;5008576;28;20042;-66
2020/12/05 04:35:22;;;;;;;3.97;1.60;;;1.80;99.90;;;;;;5004930;28;20034;-67
2020/12/05 04:37:47;;;;;;;4.72;1.88;;;1.80;99.90;;;;;;5031816;28;20061;-68
2020/12/05 04:40:13;;;;;;;3.50;1.55;;;1.80;99.90;;;;;;5008512;28;20034;-68
2020/12/05 04:42:46;;;;;;;8.00;1.90;;;1.70;99.90;;;;;;5008277;28;20386;-67
2020/12/05 04:45:12;;;;;;;3.47;1.55;;;1.70;99.90;;;;;;5008398;28;20405;-67
2020/12/05 04:47:41;;;;;;;4.82;1.92;;;1.80;99.90;;;;;;5005980;28;20034;-68
2020/12/05 04:50:08;;;;;;;7.20;1.85;;;1.80;99.90;;;;;;5008219;28;20096;-67
2020/12/05 04:52:46;;;;;;;4.90;2.13;;;1.80;99.90;;;;;;5007797;28;20026;-73
2020/12/05 04:55:12;;;;;;;4.60;2.33;;;1.80;99.90;;;;;;5006666;28;20533;-68
2020/12/05 04:57:43;;;;;;;4.68;2.13;;;1.80;99.90;;;;;;5008042;28;20034;-68
2020/12/05 05:00:08;;;;;;;7.07;2.15;;;1.80;99.90;;;;;;5007001;28;20096;-68
2020/12/05 05:02:42;;;;;;;12.45;3.65;;;1.80;99.90;;;;;;5008424;28;20053;-68
2020/12/05 05:05:10;;;;;;;5.40;2.47;;;1.90;99.90;;;;;;5007776;28;20026;-68
2020/12/05 05:07:49;;;;;;;3.55;1.67;;;1.90;99.90;;;;;;5008253;28;20092;-68
2020/12/05 05:10:21;;;;;;;5.25;2.15;;;1.90;99.90;;;;;;5006580;28;20034;-68
2020/12/05 05:12:47;;;;;;;4.03;2.05;;;1.90;99.90;;;;;;5008237;28;20073;-68
2020/12/05 05:15:19;;;;;;;3.55;1.77;;;1.90;99.90;;;;;;5007570;28;20121;-68
2020/12/05 05:17:48;;;;;;;3.65;1.70;;;1.80;99.90;;;;;;5007713;28;20456;-68
2020/12/05 05:20:20;;;;;;;4.03;1.88;;;1.80;99.90;;;;;;5006288;28;20117;-68
2020/12/05 05:22:46;;;;;;;6.63;1.88;;;1.80;99.90;;;;;;5007007;28;20069;-68
2020/12/05 05:25:12;;;;;;;3.35;1.80;;;1.80;99.90;;;;;;5007295;28;20041;-67
2020/12/05 05:27:38;;;;;;;6.18;2.15;;;1.80;99.90;;;;;;5007028;28;20060;-68
2020/12/05 05:30:13;;;;;;;5.07;1.70;;;1.80;99.90;;;;;;5008900;28;20042;-68
2020/12/05 05:32:45;;;;;;;6.13;1.70;;;1.90;99.90;;;;;;5013360;28;20038;-67
2020/12/05 05:35:12;;;;;;;3.83;1.52;;;1.90;99.90;;;;;;5012663;28;20046;-68
2020/12/05 05:37:40;;;;;;;4.10;1.60;;;1.90;99.90;;;;;;5010030;28;20092;-68
2020/12/05 05:40:07;;;;;;;4.35;1.65;;;1.90;99.90;;;;;;5007370;28;20038;-68
2020/12/05 05:42:38;;;;;;;10.00;1.83;;;2.00;99.90;;;;;;5006158;28;20038;-68
2020/12/05 05:45:24;;;;;;;8.07;2.22;;;2.00;99.90;;;;;;5030779;28;20037;-68
2020/12/05 05:47:52;;;;;;;5.97;1.90;;;2.00;99.90;;;;;;5003963;28;20045;-68
2020/12/05 05:50:25;;;;;;;7.53;3.17;;;2.00;99.90;;;;;;5002129;28;20030;-68
2020/12/05 05:52:57;;;;;;;5.65;1.60;;;2.00;99.90;;;;;;5002914;28;20041;-68
2020/12/05 05:55:41;;;;;;;4.07;1.90;;;2.00;99.90;;;;;;5002470;28;20045;-67
2020/12/05 05:58:08;;;;;;;3.97;1.75;;;2.10;99.90;;;;;;5007558;28;20042;-67
2020/12/05 06:00:41;;;;;;;5.57;1.70;;;2.10;99.90;;;;;;5011381;28;20121;-67
2020/12/05 06:03:22;;;;;;;5.78;1.83;;;2.10;99.90;;;;;;5011151;28;20068;-68
2020/12/05 06:05:57;;;;;;;4.95;1.67;;;2.10;99.90;;;;;;5030768;28;20169;-67
2020/12/05 06:08:25;;;;;;;7.45;1.98;;;2.20;99.90;;;;;;5007662;28;20033;-67
2020/12/05 06:11:02;;;;;;;5.03;2.00;;;2.20;99.90;;;;;;5009898;28;20111;-68
2020/12/05 06:13:30;;;;;;;3.92;1.92;;;2.20;99.90;;;;;;5008593;28;20072;-68
2020/12/05 06:15:57;;;;;;;5.38;3.28;;;2.20;99.90;;;;;;5010920;28;20518;-68
2020/12/05 06:18:23;;;;;;;4.43;2.47;;;2.20;99.90;;;;;;5010108;28;20093;-67
2020/12/05 06:20:50;;;;;;;6.85;2.42;;;2.20;99.90;;;;;;5010900;28;20057;-67
2020/12/05 06:23:37;;;;;;;6.45;2.35;;;2.20;99.90;;;;;;5006482;28;20060;-68
2020/12/05 06:26:11;;;;;;;6.03;2.50;;;2.20;99.90;;;;;;5009133;28;20509;-67
2020/12/05 06:28:43;;;;;;;6.28;2.05;;;2.20;99.90;;;;;;5010616;28;20479;-68
2020/12/05 06:31:09;;;;;;;10.52;2.67;;;2.20;99.90;;;;;;5010708;28;20117;-67
2020/12/05 06:33:39;;;;;;;6.85;2.50;;;2.30;99.90;;;;;;5033354;28;20041;-67
2020/12/05 06:36:26;;;;;;;7.05;2.10;;;2.30;99.90;;;;;;5010788;28;20030;-67
2020/12/05 06:39:04;;;;;;;12.80;3.13;;;2.20;99.90;;;;;;5007481;28;20038;-66
2020/12/05 06:41:34;;;;;;;7.60;2.60;;;2.10;99.90;;;;;;5033660;28;20050;-67
2020/12/05 06:44:16;;;;;;;6.45;2.58;;;2.10;99.90;;;;;;5010628;28;20117;-68
2020/12/05 06:46:53;;;;;;;8.50;2.70;;;2.00;99.90;;;;;;5037159;28;20038;-66
2020/12/05 06:49:49;;;;;;;13.50;2.85;;;2.00;99.90;;;;;;5012224;28;20038;-67
2020/12/05 06:52:24;;;;;;;6.40;2.72;;;2.00;99.90;;;;;;5004897;28;20032;-67
2020/12/05 06:55:09;;;;;;;7.32;2.70;;;1.90;99.90;;;;;;5006969;28;20037;-68
2020/12/05 06:57:36;;;;;;;8.95;2.30;;;1.90;99.90;;;;;;5008520;28;20058;-68
2020/12/05 07:00:21;;;;;;;5.35;2.15;;;2.00;99.90;;;;;;5010245;28;20044;-68
2020/12/05 07:02:58;;;;;;;7.07;3.00;;;2.00;99.90;;;;;;5006719;28;20018;-67
2020/12/05 07:05:27;;;;;;;4.22;2.08;;;2.00;99.90;;;;;;5007133;28;20038;-67
2020/12/05 07:07:55;;;;;;;4.25;2.22;;;2.00;99.90;;;;;;5008767;28;20505;-67
2020/12/05 07:10:41;;;;;;;3.55;2.05;;;2.00;99.90;;;;;;5007803;28;20050;-68
2020/12/05 07:13:37;;;;;;;5.95;2.63;;;2.00;99.90;;;;;;5009429;28;20056;-68
2020/12/05 07:16:21;;;;;;;5.40;2.40;;;2.00;99.90;;;;;;5008324;28;20046;-68
2020/12/05 07:19:00;;;;;;;8.75;2.40;;;2.10;99.90;;;;;;5006409;28;20043;-67
2020/12/05 07:21:29;;;;;;;4.97;1.90;;;2.10;99.90;;;;;;5006971;28;20040;-68
2020/12/05 07:23:55;;;;;;;4.25;2.42;;;2.10;99.90;;;;;;5007733;28;20080;-68
2020/12/05 07:26:21;;;;;;;7.95;2.55;;;2.10;99.90;;;;;;5009687;28;20092;-68
2020/12/05 07:28:48;;;;;;;8.80;2.60;;;2.10;99.90;;;;;;5007661;28;20034;-68
2020/12/05 07:31:15;;;;;;;4.68;2.42;;;2.10;99.90;;;;;;5009516;28;20042;-68
2020/12/05 07:33:42;;;;;;;4.53;2.25;;;2.20;99.90;;;;;;5009671;28;20034;-68
2020/12/05 07:36:09;;;;;;;6.75;2.13;;;2.10;99.90;;;;;;5032033;28;20386;-68
2020/12/05 07:38:37;;;;;;;7.47;2.70;;;2.20;99.90;;;;;;5009303;28;20038;-68
2020/12/05 07:41:11;;;;;;;5.85;2.70;;;2.20;99.90;;;;;;5009154;28;20030;-67
2020/12/05 07:43:37;;;;;;;8.45;2.97;;;2.20;99.90;;;;;;5013008;28;20037;-67
2020/12/05 07:46:06;;;;;;;5.10;2.25;;;2.20;99.90;;;;;;5011532;28;20034;-67
2020/12/05 07:48:32;;;;;;;5.15;2.33;;;2.30;99.90;;;;;;5011837;28;20036;-68
2020/12/05 07:50:58;;;;;;;14.60;2.78;;;2.30;99.90;;;;;;5009133;28;20471;-67
2020/12/05 07:53:34;;;;;;;14.88;3.30;;;2.30;99.90;;;;;;5010006;28;20062;-67
2020/12/05 07:56:19;;;;;;;5.22;2.63;;;2.30;99.90;;;;;;5009339;28;20037;-67
2020/12/05 07:58:48;;;;;;;6.03;2.45;;;2.40;99.90;;;;;;5011957;28;20486;-68
2020/12/05 08:01:37;;;;;;;5.47;2.53;;;2.40;99.90;;;;;;5008984;28;20037;-68
2020/12/05 08:04:41;;;;;;;6.00;3.10;;;2.50;99.90;;;;;;5031041;28;20084;-67
2020/12/05 08:07:35;;;;;;;8.93;2.70;;;2.50;99.90;;;;;;5008571;28;20029;-67
2020/12/05 08:10:10;;;;;;;5.35;2.30;;;2.50;99.90;;;;;;5007057;28;20033;-66
2020/12/05 08:12:45;;;;;;;7.30;2.58;;;2.60;99.90;;;;;;5006533;28;20576;-68
2020/12/05 08:15:18;;;;;;;6.18;2.50;;;2.60;99.90;;;;;;5000633;28;20034;-68
2020/12/05 08:17:45;;;;;;;12.63;3.60;;;2.70;99.90;;;;;;5004861;28;20042;-68
2020/12/05 08:20:13;;;;;;;7.93;2.40;;;2.70;99.90;;;;;;5006977;28;20136;-68
2020/12/05 08:22:38;;;;;;;5.35;2.70;;;2.80;99.90;;;;;;5007238;28;20026;-68
2020/12/05 08:25:05;;;;;;;4.43;2.45;;;2.80;99.90;;;;;;5006565;28;20037;-66
2020/12/05 08:27:32;;;;;;;4.72;2.65;;;2.90;99.90;;;;;;5008412;28;20475;-68
2020/12/05 08:29:59;;;;;;;4.65;2.63;;;2.90;99.90;;;;;;5007816;28;20042;-68
2020/12/05 08:32:25;;;;;;;6.93;2.75;;;3.00;99.90;;;;;;5008369;28;20034;-67
2020/12/05 08:35:05;;;;;;;6.63;3.20;;;3.00;99.90;;;;;;5008267;28;20125;-67
2020/12/05 08:37:31;;;;;;;7.55;2.80;;;3.00;99.90;;;;;;5006298;28;20038;-68
2020/12/05 08:39:58;;;;;;;4.72;2.65;;;3.00;99.90;;;;;;5008565;28;20602;-68
2020/12/05 08:42:24;;;;;;;5.95;3.08;;;3.00;99.90;;;;;;5006614;28;20065;-67
2020/12/05 08:44:50;;;;;;;8.32;3.03;;;2.90;99.90;;;;;;5008066;28;20053;-67
2020/12/05 08:47:16;;;;;;;4.55;2.60;;;2.90;99.90;;;;;;5008059;28;20034;-69
2020/12/05 08:49:43;;;;;;;5.78;3.13;;;2.90;99.90;;;;;;5007951;28;20026;-68
2020/12/05 08:52:10;;;;;;;5.32;2.60;;;3.00;99.90;;;;;;5003438;28;20104;-69
2020/12/05 08:54:52;;;;;;;6.50;3.17;;;3.00;99.90;;;;;;5006259;28;20037;-69
2020/12/05 08:57:19;;;;;;;6.43;2.97;;;3.00;99.90;;;;;;5004248;28;20557;-69
2020/12/05 08:59:46;;;;;;;5.32;2.72;;;3.10;99.90;;;;;;5008127;28;20037;-67
2020/12/05 09:02:12;;;;;;;3.90;2.45;;;3.10;99.90;;;;;;5006940;28;20026;-68
2020/12/05 09:04:39;;;;;;;8.32;3.17;;;3.20;99.90;;;;;;5006400;28;20034;-68
2020/12/05 09:07:10;;;;;;;7.47;3.00;;;3.20;99.90;;;;;;5008026;28;20026;-69
2020/12/05 09:09:36;;;;;;;11.00;3.50;;;3.30;99.90;;;;;;5007529;28;20088;-68
2020/12/05 09:12:10;;;;;;;5.00;2.60;;;3.30;99.90;;;;;;5008011;28;20026;-68
2020/12/05 09:14:36;;;;;;;5.85;3.03;;;3.40;99.90;;;;;;5007105;28;20034;-69
2020/12/05 09:17:03;;;;;;;7.97;3.03;;;3.50;99.90;;;;;;5007519;28;20080;-68
2020/12/05 09:19:30;;;;;;;7.95;2.97;;;3.50;99.90;;;;;;5005404;28;20597;-68
2020/12/05 09:21:57;;;;;;;6.40;2.33;;;3.60;99.90;;;;;;5007565;28;20018;-69
2020/12/05 09:24:23;;;;;;;7.10;2.80;;;3.70;99.90;;;;;;5007341;28;20084;-69
2020/12/05 09:26:54;;;;;;;9.15;3.42;;;3.80;99.90;;;;;;5006382;28;20038;-68
2020/12/05 09:29:19;;;;;;;4.70;2.40;;;3.80;99.90;;;;;;5007958;28;20066;-70
2020/12/05 09:31:51;;;;;;;8.38;3.75;;;3.90;99.90;;;;;;5008650;28;20056;-68
2020/12/05 09:34:29;;;;;;;6.30;2.65;;;3.90;99.90;;;;;;5013410;28;20048;-68
2020/12/05 09:36:54;;;;;;;5.90;2.67;;;4.00;99.90;;;;;;5009656;28;20054;-69
2020/12/05 09:39:20;;;;;;;6.20;2.80;;;4.00;99.90;;;;;;5010724;28;20560;-68
2020/12/05 09:41:45;;;;;;;6.68;2.63;;;4.10;99.90;;;;;;5011101;28;20069;-68
2020/12/05 09:44:11;;;;;;;5.80;2.90;;;4.20;99.90;;;;;;5009413;28;20041;-67
2020/12/05 09:46:36;;;;;;;5.20;2.53;;;4.20;99.90;;;;;;5033010;28;20029;-69
2020/12/05 09:49:02;;;;;;;5.93;2.85;;;4.20;99.90;;;;;;5011301;28;20038;-68
2020/12/05 09:51:28;;;;;;;4.53;2.78;;;4.30;99.90;;;;;;5011632;28;20041;-69
2020/12/05 09:53:54;;;;;;;5.93;2.80;;;4.40;99.90;;;;;;5011446;28;20399;-68
2020/12/05 09:56:19;;;;;;;5.32;2.67;;;4.40;99.90;;;;;;5011162;28;20033;-69
2020/12/05 09:58:45;;;;;;;4.90;2.75;;;4.40;99.90;;;;;;5009552;28;20115;-69
2020/12/05 10:01:10;;;;;;;7.28;3.00;;;4.40;99.90;;;;;;5011070;28;20080;-68
2020/12/05 10:03:36;;;;;;;5.45;2.80;;;4.50;99.90;;;;;;5010895;28;20029;-68
2020/12/05 10:06:02;;;;;;;4.63;2.40;;;4.50;99.90;;;;;;5011278;28;20487;-68
2020/12/05 10:08:27;;;;;;;4.40;2.50;;;4.50;99.90;;;;;;5011328;28;20037;-67
2020/12/05 10:10:53;;;;;;;5.40;2.90;;;4.60;99.90;;;;;;5010695;28;20034;-68
2020/12/05 10:13:19;;;;;;;5.60;2.67;;;4.70;99.90;;;;;;5011483;28;20518;-68
2020/12/05 10:15:44;;;;;;;5.95;3.33;;;4.70;99.90;;;;;;5008500;28;20033;-67
2020/12/05 10:18:10;;;;;;;5.85;2.67;;;4.70;99.90;;;;;;5010995;28;20041;-67
2020/12/05 10:20:35;;;;;;;5.78;2.83;;;4.70;99.90;;;;;;5010797;28;20077;-67
2020/12/05 10:23:01;;;;;;;5.88;2.53;;;4.70;99.90;;;;;;5034239;28;20034;-67
2020/12/05 10:25:26;;;;;;;6.03;3.00;;;4.70;99.90;;;;;;5011002;28;20121;-67
2020/12/05 10:27:52;;;;;;;6.35;3.10;;;4.80;99.90;;;;;;5010520;28;20030;-68
2020/12/05 10:30:17;;;;;;;5.22;2.83;;;4.80;99.90;;;;;;5011008;28;20041;-68
2020/12/05 10:32:43;;;;;;;7.22;2.67;;;4.80;99.90;;;;;;5033955;28;20469;-71
2020/12/05 10:35:09;;;;;;;6.75;3.08;;;4.80;99.90;;;;;;5034623;28;20041;-68
2020/12/05 10:37:35;;;;;;;5.43;2.70;;;4.90;99.90;;;;;;5034408;28;20042;-68
2020/12/05 10:40:00;;;;;;;4.43;2.47;;;4.90;99.90;;;;;;5010788;28;20514;-68
2020/12/05 10:42:26;;;;;;;7.10;2.15;;;4.90;99.90;;;;;;5010878;28;20088;-66
2020/12/05 10:44:51;;;;;;;5.65;2.47;;;5.00;99.90;;;;;;5010041;28;20068;-68
2020/12/05 10:47:17;;;;;;;4.82;2.42;;;5.00;99.90;;;;;;5009793;28;20045;-68
2020/12/05 10:49:42;;;;;;;6.18;3.22;;;5.20;99.90;;;;;;5010265;28;20379;-68
2020/12/05 10:52:08;;;;;;;3.92;1.83;;;5.70;99.90;;;;;;5010375;28;20034;-68
2020/12/05 10:54:33;;;;;;;6.25;2.40;;;6.10;99.90;;;;;;5010446;28;20062;-68
2020/12/05 10:56:59;;;;;;;4.82;2.38;;;6.30;99.90;;;;;;5010105;28;20674;-68
2020/12/05 10:59:24;;;;;;;4.40;2.20;;;6.20;99.90;;;;;;5010292;28;20108;-67
2020/12/05 11:01:50;;;;;;;4.47;2.22;;;5.90;99.90;;;;;;5010138;28;20030;-68
2020/12/05 11:04:16;;;;;;;6.88;2.03;;;5.80;99.90;;;;;;5009412;28;20034;-66
2020/12/05 11:06:41;;;;;;;4.57;2.30;;;5.60;99.90;;;;;;5016641;28;20033;-68
2020/12/05 11:09:07;;;;;;;5.03;2.05;;;5.60;99.90;;;;;;5009285;28;20478;-67
2020/12/05 11:11:32;;;;;;;7.60;2.15;;;5.70;99.90;;;;;;5009491;28;20483;-68
2020/12/05 11:13:58;;;;;;;7.75;2.25;;;6.10;99.90;;;;;;5009583;28;20108;-68
2020/12/05 11:16:24;;;;;;;2.75;1.45;;;6.50;99.90;;;;;;5031868;28;20033;-68
2020/12/05 11:18:52;;;;;;;3.40;1.52;;;6.70;99.90;;;;;;5007584;28;20044;-68
2020/12/05 11:21:17;;;;;;;2.13;1.40;;;6.50;99.90;;;;;;5003915;28;20040;-69
2020/12/05 11:23:43;;;;;;;4.15;1.77;;;6.30;99.90;;;;;;5009609;28;20421;-68
2020/12/05 11:26:09;;;;;;;3.47;1.35;;;6.00;99.90;;;;;;5007964;28;20376;-68
2020/12/05 11:28:34;;;;;;;5.20;1.90;;;5.90;99.90;;;;;;5009493;28;20061;-68
2020/12/05 11:31:00;;;;;;;4.05;1.63;;;5.80;99.90;;;;;;5008990;28;20117;-69
2020/12/05 11:33:25;;;;;;;3.67;1.60;;;5.70;99.90;;;;;;5009519;28;20026;-69
2020/12/05 11:35:51;;;;;;;3.28;1.20;;;5.70;99.90;;;;;;5008864;28;20483;-68
2020/12/05 11:38:18;;;;;;;4.63;1.27;;;5.70;99.90;;;;;;5008831;28;20081;-68
2020/12/05 11:40:45;;;;;;;4.72;1.98;;;5.60;99.90;;;;;;5008602;28;20084;-68
2020/12/05 11:43:10;;;;;;;4.30;1.42;;;5.60;99.90;;;;;;5007336;28;20038;-68
2020/12/05 11:45:36;;;;;;;3.50;1.45;;;5.60;99.90;;;;;;5008814;28;20421;-68
2020/12/05 11:48:01;;;;;;;2.40;1.50;;;5.60;99.90;;;;;;5025684;28;20541;-68
2020/12/05 11:50:27;;;;;;;4.53;1.63;;;5.50;99.90;;;;;;5008606;28;20475;-67
2020/12/05 11:52:52;;;;;;;5.03;1.60;;;5.50;99.90;;;;;;5008868;28;20531;-68
2020/12/05 11:55:18;;;;;;;2.75;1.30;;;5.50;99.90;;;;;;5005028;28;20487;-68
2020/12/05 11:57:43;;;;;;;5.22;1.80;;;5.50;99.90;;;;;;5008081;28;20498;-67
2020/12/05 12:00:09;;;;;;;3.42;1.83;;;5.50;99.90;;;;;;5008902;28;20539;-68
2020/12/05 12:02:35;;;;;;;4.82;2.20;;;5.50;99.90;;;;;;5009233;28;20088;-68
2020/12/05 12:05:01;;;;;;;4.10;1.60;;;5.50;99.90;;;;;;5029616;28;20030;-69
2020/12/05 12:07:28;;;;;;;1.85;1.23;;;5.50;99.90;;;;;;5008500;28;20034;-69
2020/12/05 12:09:53;;;;;;;3.63;1.83;;;5.40;99.90;;;;;;5008672;28;20487;-69
2020/12/05 12:12:19;;;;;;;4.15;1.40;;;5.50;99.90;;;;;;5006581;28;20053;-68
2020/12/05 12:14:44;;;;;;;3.08;1.48;;;5.50;99.90;;;;;;5008932;28;20034;-67
2020/12/05 12:17:10;;;;;;;1.60;1.00;;;5.50;99.90;;;;;;5005427;28;20034;-69
2020/12/05 12:19:35;;;;;;;4.03;1.27;;;5.50;99.90;;;;;;5007555;28;20057;-68
2020/12/05 12:22:01;;;;;;;4.32;1.35;;;5.50;99.90;;;;;;5008086;28;20072;-70
2020/12/05 12:24:26;;;;;;;3.78;1.75;;;5.50;99.90;;;;;;5014540;28;20407;-68
2020/12/05 12:26:52;;;;;;;3.08;1.23;;;5.60;99.90;;;;;;5008580;28;20087;-68
2020/12/05 12:29:18;;;;;;;2.63;1.17;;;5.50;99.90;;;;;;5008525;28;20034;-68
2020/12/05 12:31:43;;;;;;;6.57;1.33;;;5.50;99.90;;;;;;5008572;28;20034;-68
2020/12/05 12:34:09;;;;;;;2.97;1.40;;;5.60;99.90;;;;;;5008507;28;20030;-68
2020/12/05 12:36:35;;;;;;;2.83;1.10;;;5.60;99.90;;;;;;5008520;28;20061;-68
2020/12/05 12:39:01;;;;;;;4.10;1.40;;;5.50;99.90;;;;;;5031880;28;20371;-68
2020/12/05 12:41:26;;;;;;;2.78;1.33;;;5.50;99.90;;;;;;5008402;28;20140;-68
2020/12/05 12:43:52;;;;;;;3.63;1.20;;;5.60;99.90;;;;;;5008521;28;20339;-68
2020/12/05 12:46:21;;;;;;;5.10;1.40;;;5.70;99.90;;;;;;5013112;28;20034;-67
2020/12/05 12:48:47;;;;;;;3.10;1.17;;;5.70;99.90;;;;;;5015042;28;20034;-67
2020/12/05 12:51:13;;;;;;;5.05;1.33;;;5.70;99.90;;;;;;5012670;28;20037;-68
2020/12/05 12:53:38;;;;;;;6.13;1.13;;;5.70;99.90;;;;;;5012521;28;20053;-68
2020/12/05 12:56:04;;;;;;;2.85;1.02;;;5.70;99.90;;;;;;5014668;28;20056;-67
2020/12/05 12:58:36;;;;;;;1.65;1.17;;;5.80;99.90;;;;;;5014723;28;20064;-67
2020/12/05 13:01:03;;;;;;;2.38;1.05;;;5.80;99.90;;;;;;5012809;28;20213;-68
2020/12/05 13:03:29;;;;;;;4.28;1.00;;;5.80;99.90;;;;;;5013581;28;20045;-68
2020/12/05 13:05:54;;;;;;;2.30;0.93;;;5.80;99.90;;;;;;5036750;28;20038;-68